sensor_id;sensor_type;location;lat;lon;timestamp;P1;durP1;ratioP1;P2;durP2;ratioP2
22929;SDS011;11630;42.660;23.292;2023-06-26T00:01:17;26.73;;;20.13;;
22929;SDS011;11630;42.660;23.292;2023-06-26T00:03:48;26.37;;;18.47;;
22929;SDS011;11630;42.660;23.292;2023-06-26T00:06:19;22.27;;;18.33;;
22929;SDS011;11630;42.660;23.292;2023-06-26T00:08:50;23.77;;;19.37;;
22929;SDS011;11630;42.660;23.292;2023-06-26T00:11:22;22.97;;;18.80;;
22929;SDS011;11630;42.660;23.292;2023-06-26T00:13:53;27.80;;;19.27;;
22929;SDS011;11630;42.660;23.292;2023-06-26T00:16:25;23.03;;;18.20;;
22929;SDS011;11630;42.660;23.292;2023-06-26T00:18:56;20.73;;;16.80;;
22929;SDS011;11630;42.660;23.292;2023-06-26T00:21:26;24.77;;;18.27;;
22929;SDS011;11630;42.660;23.292;2023-06-26T00:23:56;28.63;;;17.07;;
22929;SDS011;11630;42.660;23.292;2023-06-26T00:26:26;21.87;;;17.40;;
22929;SDS011;11630;42.660;23.292;2023-06-26T00:28:57;18.47;;;16.47;;
22929;SDS011;11630;42.660;23.292;2023-06-26T00:31:27;24.23;;;18.30;;
22929;SDS011;11630;42.660;23.292;2023-06-26T00:33:58;19.33;;;17.07;;
22929;SDS011;11630;42.660;23.292;2023-06-26T00:36:29;21.53;;;16.87;;
22929;SDS011;11630;42.660;23.292;2023-06-26T00:39:00;25.33;;;16.90;;
22929;SDS011;11630;42.660;23.292;2023-06-26T00:41:30;16.27;;;14.53;;
22929;SDS011;11630;42.660;23.292;2023-06-26T00:44:01;22.67;;;15.67;;
22929;SDS011;11630;42.660;23.292;2023-06-26T00:46:33;21.00;;;16.60;;
22929;SDS011;11630;42.660;23.292;2023-06-26T00:49:04;18.43;;;16.03;;
22929;SDS011;11630;42.660;23.292;2023-06-26T00:51:36;21.37;;;15.47;;
22929;SDS011;11630;42.660;23.292;2023-06-26T00:54:07;17.47;;;14.80;;
22929;SDS011;11630;42.660;23.292;2023-06-26T00:56:38;19.63;;;15.27;;
22929;SDS011;11630;42.660;23.292;2023-06-26T00:59:09;20.40;;;15.23;;
22929;SDS011;11630;42.660;23.292;2023-06-26T01:01:42;18.03;;;14.43;;
22929;SDS011;11630;42.660;23.292;2023-06-26T01:04:13;17.90;;;14.43;;
22929;SDS011;11630;42.660;23.292;2023-06-26T01:06:46;19.47;;;13.27;;
22929;SDS011;11630;42.660;23.292;2023-06-26T01:09:19;18.13;;;14.30;;
22929;SDS011;11630;42.660;23.292;2023-06-26T01:11:51;19.30;;;14.40;;
22929;SDS011;11630;42.660;23.292;2023-06-26T01:14:23;16.33;;;14.57;;
22929;SDS011;11630;42.660;23.292;2023-06-26T01:16:54;19.10;;;15.70;;
22929;SDS011;11630;42.660;23.292;2023-06-26T01:19:26;18.80;;;14.93;;
22929;SDS011;11630;42.660;23.292;2023-06-26T01:22:01;18.67;;;14.10;;
22929;SDS011;11630;42.660;23.292;2023-06-26T01:24:39;17.97;;;14.33;;
22929;SDS011;11630;42.660;23.292;2023-06-26T01:27:26;17.53;;;13.90;;
22929;SDS011;11630;42.660;23.292;2023-06-26T01:30:00;21.97;;;16.00;;
22929;SDS011;11630;42.660;23.292;2023-06-26T01:32:31;18.43;;;14.13;;
22929;SDS011;11630;42.660;23.292;2023-06-26T01:35:04;16.47;;;13.97;;
22929;SDS011;11630;42.660;23.292;2023-06-26T01:37:41;22.23;;;14.10;;
22929;SDS011;11630;42.660;23.292;2023-06-26T01:40:12;16.27;;;14.57;;
22929;SDS011;11630;42.660;23.292;2023-06-26T01:42:43;20.30;;;15.03;;
22929;SDS011;11630;42.660;23.292;2023-06-26T01:45:14;15.97;;;14.27;;
22929;SDS011;11630;42.660;23.292;2023-06-26T01:47:47;19.17;;;15.07;;
22929;SDS011;11630;42.660;23.292;2023-06-26T01:50:20;20.93;;;14.93;;
22929;SDS011;11630;42.660;23.292;2023-06-26T01:55:42;17.93;;;14.10;;
22929;SDS011;11630;42.660;23.292;2023-06-26T01:58:24;16.33;;;14.73;;
22929;SDS011;11630;42.660;23.292;2023-06-26T02:00:54;17.20;;;14.83;;
22929;SDS011;11630;42.660;23.292;2023-06-26T02:03:24;19.60;;;14.20;;
22929;SDS011;11630;42.660;23.292;2023-06-26T02:05:57;18.40;;;14.53;;
22929;SDS011;11630;42.660;23.292;2023-06-26T02:08:28;19.47;;;14.53;;
22929;SDS011;11630;42.660;23.292;2023-06-26T02:10:59;18.90;;;14.80;;
22929;SDS011;11630;42.660;23.292;2023-06-26T02:13:29;19.20;;;14.97;;
22929;SDS011;11630;42.660;23.292;2023-06-26T02:16:00;17.80;;;15.17;;
22929;SDS011;11630;42.660;23.292;2023-06-26T02:18:31;18.60;;;15.07;;
22929;SDS011;11630;42.660;23.292;2023-06-26T02:21:03;17.63;;;15.60;;
22929;SDS011;11630;42.660;23.292;2023-06-26T02:23:38;23.53;;;16.80;;
22929;SDS011;11630;42.660;23.292;2023-06-26T02:26:11;20.07;;;16.83;;
22929;SDS011;11630;42.660;23.292;2023-06-26T02:28:42;20.93;;;17.33;;
22929;SDS011;11630;42.660;23.292;2023-06-26T02:31:13;20.87;;;17.10;;
22929;SDS011;11630;42.660;23.292;2023-06-26T02:33:46;19.97;;;17.33;;
22929;SDS011;11630;42.660;23.292;2023-06-26T02:36:21;19.27;;;17.27;;
22929;SDS011;11630;42.660;23.292;2023-06-26T02:38:51;22.83;;;17.30;;
22929;SDS011;11630;42.660;23.292;2023-06-26T02:41:22;17.97;;;16.07;;
22929;SDS011;11630;42.660;23.292;2023-06-26T02:43:54;19.13;;;17.13;;
22929;SDS011;11630;42.660;23.292;2023-06-26T02:46:25;22.40;;;16.53;;
22929;SDS011;11630;42.660;23.292;2023-06-26T02:48:55;21.20;;;18.13;;
22929;SDS011;11630;42.660;23.292;2023-06-26T02:51:26;22.30;;;18.13;;
22929;SDS011;11630;42.660;23.292;2023-06-26T02:54:00;20.43;;;17.23;;
22929;SDS011;11630;42.660;23.292;2023-06-26T02:56:31;24.30;;;18.57;;
22929;SDS011;11630;42.660;23.292;2023-06-26T02:59:02;20.13;;;17.07;;
22929;SDS011;11630;42.660;23.292;2023-06-26T03:01:32;19.03;;;16.10;;
22929;SDS011;11630;42.660;23.292;2023-06-26T03:04:03;21.77;;;18.00;;
22929;SDS011;11630;42.660;23.292;2023-06-26T03:06:38;19.97;;;17.80;;
22929;SDS011;11630;42.660;23.292;2023-06-26T03:09:09;28.60;;;20.23;;
22929;SDS011;11630;42.660;23.292;2023-06-26T03:11:40;23.53;;;18.43;;
22929;SDS011;11630;42.660;23.292;2023-06-26T03:14:11;20.47;;;17.57;;
22929;SDS011;11630;42.660;23.292;2023-06-26T03:16:46;23.90;;;18.93;;
22929;SDS011;11630;42.660;23.292;2023-06-26T03:19:17;20.40;;;18.30;;
22929;SDS011;11630;42.660;23.292;2023-06-26T03:21:48;22.20;;;18.57;;
22929;SDS011;11630;42.660;23.292;2023-06-26T03:24:19;24.83;;;17.93;;
22929;SDS011;11630;42.660;23.292;2023-06-26T03:26:50;20.60;;;18.43;;
22929;SDS011;11630;42.660;23.292;2023-06-26T03:29:21;20.90;;;18.10;;
22929;SDS011;11630;42.660;23.292;2023-06-26T03:31:52;22.77;;;19.33;;
22929;SDS011;11630;42.660;23.292;2023-06-26T03:34:23;26.50;;;19.40;;
22929;SDS011;11630;42.660;23.292;2023-06-26T03:36:54;22.10;;;18.53;;
22929;SDS011;11630;42.660;23.292;2023-06-26T03:39:25;21.37;;;19.20;;
22929;SDS011;11630;42.660;23.292;2023-06-26T03:41:55;24.07;;;19.07;;
22929;SDS011;11630;42.660;23.292;2023-06-26T03:44:27;21.80;;;19.57;;
22929;SDS011;11630;42.660;23.292;2023-06-26T03:46:58;23.60;;;20.67;;
22929;SDS011;11630;42.660;23.292;2023-06-26T03:49:29;27.70;;;19.77;;
22929;SDS011;11630;42.660;23.292;2023-06-26T03:52:00;25.70;;;21.97;;
22929;SDS011;11630;42.660;23.292;2023-06-26T03:54:31;30.47;;;20.10;;
22929;SDS011;11630;42.660;23.292;2023-06-26T03:57:02;22.07;;;19.30;;
22929;SDS011;11630;42.660;23.292;2023-06-26T03:59:33;23.77;;;19.93;;
22929;SDS011;11630;42.660;23.292;2023-06-26T04:02:04;26.50;;;20.30;;
22929;SDS011;11630;42.660;23.292;2023-06-26T04:04:35;21.60;;;18.93;;
22929;SDS011;11630;42.660;23.292;2023-06-26T04:07:06;25.47;;;19.37;;
22929;SDS011;11630;42.660;23.292;2023-06-26T04:09:36;26.60;;;19.87;;
22929;SDS011;11630;42.660;23.292;2023-06-26T04:12:07;21.87;;;18.97;;
22929;SDS011;11630;42.660;23.292;2023-06-26T04:14:37;24.43;;;18.90;;
22929;SDS011;11630;42.660;23.292;2023-06-26T04:17:09;20.90;;;18.70;;
22929;SDS011;11630;42.660;23.292;2023-06-26T04:19:39;22.30;;;19.60;;
22929;SDS011;11630;42.660;23.292;2023-06-26T04:22:10;21.87;;;19.00;;
22929;SDS011;11630;42.660;23.292;2023-06-26T04:24:42;21.13;;;18.93;;
22929;SDS011;11630;42.660;23.292;2023-06-26T04:27:13;22.10;;;17.87;;
22929;SDS011;11630;42.660;23.292;2023-06-26T04:29:44;21.50;;;17.97;;
22929;SDS011;11630;42.660;23.292;2023-06-26T04:32:15;21.80;;;17.57;;
22929;SDS011;11630;42.660;23.292;2023-06-26T04:34:48;19.87;;;17.87;;
22929;SDS011;11630;42.660;23.292;2023-06-26T04:37:18;20.33;;;18.13;;
22929;SDS011;11630;42.660;23.292;2023-06-26T04:39:49;21.37;;;17.07;;
22929;SDS011;11630;42.660;23.292;2023-06-26T04:42:20;23.60;;;17.60;;
22929;SDS011;11630;42.660;23.292;2023-06-26T04:44:51;23.00;;;18.13;;
22929;SDS011;11630;42.660;23.292;2023-06-26T04:47:22;21.43;;;19.30;;
22929;SDS011;11630;42.660;23.292;2023-06-26T04:49:53;20.17;;;16.57;;
22929;SDS011;11630;42.660;23.292;2023-06-26T04:52:24;17.23;;;15.37;;
22929;SDS011;11630;42.660;23.292;2023-06-26T04:54:55;19.77;;;17.67;;
22929;SDS011;11630;42.660;23.292;2023-06-26T04:57:26;21.60;;;18.67;;
22929;SDS011;11630;42.660;23.292;2023-06-26T04:59:57;18.97;;;17.03;;
22929;SDS011;11630;42.660;23.292;2023-06-26T05:02:28;23.87;;;17.57;;
22929;SDS011;11630;42.660;23.292;2023-06-26T05:04:59;20.37;;;17.37;;
22929;SDS011;11630;42.660;23.292;2023-06-26T05:07:30;18.50;;;16.60;;
22929;SDS011;11630;42.660;23.292;2023-06-26T05:10:01;21.10;;;16.50;;
22929;SDS011;11630;42.660;23.292;2023-06-26T05:12:31;25.50;;;18.90;;
22929;SDS011;11630;42.660;23.292;2023-06-26T05:15:01;19.23;;;16.40;;
22929;SDS011;11630;42.660;23.292;2023-06-26T05:17:32;19.97;;;17.93;;
22929;SDS011;11630;42.660;23.292;2023-06-26T05:20:03;21.97;;;18.30;;
22929;SDS011;11630;42.660;23.292;2023-06-26T05:22:34;18.27;;;16.37;;
22929;SDS011;11630;42.660;23.292;2023-06-26T05:25:07;19.27;;;17.20;;
22929;SDS011;11630;42.660;23.292;2023-06-26T05:27:37;24.50;;;17.67;;
22929;SDS011;11630;42.660;23.292;2023-06-26T05:30:11;24.77;;;17.87;;
22929;SDS011;11630;42.660;23.292;2023-06-26T05:32:44;20.83;;;18.60;;
22929;SDS011;11630;42.660;23.292;2023-06-26T05:35:16;20.07;;;15.33;;
22929;SDS011;11630;42.660;23.292;2023-06-26T05:37:50;21.27;;;16.77;;
22929;SDS011;11630;42.660;23.292;2023-06-26T05:40:22;20.47;;;17.27;;
22929;SDS011;11630;42.660;23.292;2023-06-26T05:42:53;19.33;;;17.30;;
22929;SDS011;11630;42.660;23.292;2023-06-26T05:45:23;27.63;;;18.80;;
22929;SDS011;11630;42.660;23.292;2023-06-26T05:47:53;21.87;;;17.90;;
22929;SDS011;11630;42.660;23.292;2023-06-26T05:50:26;20.87;;;18.43;;
22929;SDS011;11630;42.660;23.292;2023-06-26T05:52:56;18.93;;;16.97;;
22929;SDS011;11630;42.660;23.292;2023-06-26T05:55:28;23.33;;;19.63;;
22929;SDS011;11630;42.660;23.292;2023-06-26T05:57:58;19.73;;;17.63;;
22929;SDS011;11630;42.660;23.292;2023-06-26T06:00:29;25.33;;;16.63;;
22929;SDS011;11630;42.660;23.292;2023-06-26T06:03:02;17.70;;;15.90;;
22929;SDS011;11630;42.660;23.292;2023-06-26T06:05:32;17.47;;;15.60;;
22929;SDS011;11630;42.660;23.292;2023-06-26T06:08:03;16.93;;;15.23;;
22929;SDS011;11630;42.660;23.292;2023-06-26T06:10:33;18.13;;;16.20;;
22929;SDS011;11630;42.660;23.292;2023-06-26T06:13:04;18.73;;;14.87;;
22929;SDS011;11630;42.660;23.292;2023-06-26T06:15:35;19.63;;;17.30;;
22929;SDS011;11630;42.660;23.292;2023-06-26T06:18:06;16.33;;;14.63;;
22929;SDS011;11630;42.660;23.292;2023-06-26T06:20:37;15.73;;;14.23;;
22929;SDS011;11630;42.660;23.292;2023-06-26T06:23:08;16.63;;;13.80;;
22929;SDS011;11630;42.660;23.292;2023-06-26T06:25:39;16.20;;;14.50;;
22929;SDS011;11630;42.660;23.292;2023-06-26T06:28:08;20.97;;;14.57;;
22929;SDS011;11630;42.660;23.292;2023-06-26T06:30:40;19.63;;;14.53;;
22929;SDS011;11630;42.660;23.292;2023-06-26T06:33:11;17.97;;;15.57;;
22929;SDS011;11630;42.660;23.292;2023-06-26T06:35:42;16.43;;;14.73;;
22929;SDS011;11630;42.660;23.292;2023-06-26T06:38:13;18.70;;;15.00;;
22929;SDS011;11630;42.660;23.292;2023-06-26T06:40:43;18.23;;;15.67;;
22929;SDS011;11630;42.660;23.292;2023-06-26T06:43:14;23.60;;;15.33;;
22929;SDS011;11630;42.660;23.292;2023-06-26T06:45:44;15.63;;;14.03;;
22929;SDS011;11630;42.660;23.292;2023-06-26T06:48:16;18.27;;;14.40;;
22929;SDS011;11630;42.660;23.292;2023-06-26T06:50:46;14.73;;;13.23;;
22929;SDS011;11630;42.660;23.292;2023-06-26T06:53:17;16.00;;;12.67;;
22929;SDS011;11630;42.660;23.292;2023-06-26T06:55:50;17.47;;;12.30;;
22929;SDS011;11630;42.660;23.292;2023-06-26T06:58:20;13.60;;;11.70;;
22929;SDS011;11630;42.660;23.292;2023-06-26T07:00:51;13.63;;;12.33;;
22929;SDS011;11630;42.660;23.292;2023-06-26T07:03:22;13.30;;;10.93;;
22929;SDS011;11630;42.660;23.292;2023-06-26T07:05:53;10.93;;;9.87;;
22929;SDS011;11630;42.660;23.292;2023-06-26T07:08:24;13.30;;;10.07;;
22929;SDS011;11630;42.660;23.292;2023-06-26T07:10:56;12.10;;;10.83;;
22929;SDS011;11630;42.660;23.292;2023-06-26T07:13:27;12.87;;;11.53;;
22929;SDS011;11630;42.660;23.292;2023-06-26T07:15:58;25.23;;;13.70;;
22929;SDS011;11630;42.660;23.292;2023-06-26T07:18:29;23.93;;;11.53;;
22929;SDS011;11630;42.660;23.292;2023-06-26T07:21:00;10.63;;;8.17;;
22929;SDS011;11630;42.660;23.292;2023-06-26T07:23:31;12.93;;;10.53;;
22929;SDS011;11630;42.660;23.292;2023-06-26T07:26:02;17.37;;;11.43;;
22929;SDS011;11630;42.660;23.292;2023-06-26T07:28:33;12.17;;;9.67;;
22929;SDS011;11630;42.660;23.292;2023-06-26T07:31:05;10.70;;;9.03;;
22929;SDS011;11630;42.660;23.292;2023-06-26T07:33:36;12.30;;;9.97;;
22929;SDS011;11630;42.660;23.292;2023-06-26T07:36:07;12.20;;;9.93;;
22929;SDS011;11630;42.660;23.292;2023-06-26T07:38:38;9.50;;;8.57;;
22929;SDS011;11630;42.660;23.292;2023-06-26T07:41:12;12.00;;;8.30;;
22929;SDS011;11630;42.660;23.292;2023-06-26T07:43:43;8.77;;;7.47;;
22929;SDS011;11630;42.660;23.292;2023-06-26T07:46:14;14.20;;;8.17;;
22929;SDS011;11630;42.660;23.292;2023-06-26T07:48:44;13.13;;;9.63;;
22929;SDS011;11630;42.660;23.292;2023-06-26T07:51:15;11.33;;;8.93;;
22929;SDS011;11630;42.660;23.292;2023-06-26T07:53:46;10.43;;;8.73;;
22929;SDS011;11630;42.660;23.292;2023-06-26T07:56:17;8.83;;;7.77;;
22929;SDS011;11630;42.660;23.292;2023-06-26T07:58:47;12.10;;;7.87;;
22929;SDS011;11630;42.660;23.292;2023-06-26T08:01:18;8.07;;;6.17;;
22929;SDS011;11630;42.660;23.292;2023-06-26T08:03:49;10.27;;;5.90;;
22929;SDS011;11630;42.660;23.292;2023-06-26T08:06:19;11.60;;;7.00;;
22929;SDS011;11630;42.660;23.292;2023-06-26T08:08:51;10.83;;;7.50;;
22929;SDS011;11630;42.660;23.292;2023-06-26T08:11:22;18.90;;;8.23;;
22929;SDS011;11630;42.660;23.292;2023-06-26T08:13:53;10.50;;;7.33;;
22929;SDS011;11630;42.660;23.292;2023-06-26T08:16:24;12.67;;;7.10;;
22929;SDS011;11630;42.660;23.292;2023-06-26T08:18:55;10.07;;;7.27;;
22929;SDS011;11630;42.660;23.292;2023-06-26T08:21:26;30.43;;;9.10;;
22929;SDS011;11630;42.660;23.292;2023-06-26T08:23:56;33.03;;;9.63;;
22929;SDS011;11630;42.660;23.292;2023-06-26T08:26:27;9.40;;;7.83;;
22929;SDS011;11630;42.660;23.292;2023-06-26T08:28:58;12.60;;;7.70;;
22929;SDS011;11630;42.660;23.292;2023-06-26T08:31:29;10.13;;;8.17;;
22929;SDS011;11630;42.660;23.292;2023-06-26T08:34:00;15.60;;;7.83;;
22929;SDS011;11630;42.660;23.292;2023-06-26T08:36:31;28.30;;;10.73;;
22929;SDS011;11630;42.660;23.292;2023-06-26T08:39:02;7.27;;;6.30;;
22929;SDS011;11630;42.660;23.292;2023-06-26T08:41:32;6.63;;;5.73;;
22929;SDS011;11630;42.660;23.292;2023-06-26T08:44:04;10.57;;;6.83;;
22929;SDS011;11630;42.660;23.292;2023-06-26T08:46:35;9.77;;;6.53;;
22929;SDS011;11630;42.660;23.292;2023-06-26T08:49:10;7.60;;;6.20;;
22929;SDS011;11630;42.660;23.292;2023-06-26T08:51:45;15.40;;;6.07;;
22929;SDS011;11630;42.660;23.292;2023-06-26T08:54:20;11.10;;;5.87;;
22929;SDS011;11630;42.660;23.292;2023-06-26T08:56:51;11.97;;;5.67;;
22929;SDS011;11630;42.660;23.292;2023-06-26T08:59:22;9.00;;;6.13;;
22929;SDS011;11630;42.660;23.292;2023-06-26T09:01:56;14.70;;;6.13;;
22929;SDS011;11630;42.660;23.292;2023-06-26T09:04:28;9.93;;;5.93;;
22929;SDS011;11630;42.660;23.292;2023-06-26T09:06:59;10.13;;;7.43;;
22929;SDS011;11630;42.660;23.292;2023-06-26T09:09:30;6.23;;;5.50;;
22929;SDS011;11630;42.660;23.292;2023-06-26T09:12:01;6.63;;;5.50;;
22929;SDS011;11630;42.660;23.292;2023-06-26T09:14:32;8.13;;;5.03;;
22929;SDS011;11630;42.660;23.292;2023-06-26T09:17:03;8.73;;;7.77;;
22929;SDS011;11630;42.660;23.292;2023-06-26T09:19:32;10.67;;;6.47;;
22929;SDS011;11630;42.660;23.292;2023-06-26T09:22:10;6.57;;;5.10;;
22929;SDS011;11630;42.660;23.292;2023-06-26T09:24:37;9.50;;;5.80;;
22929;SDS011;11630;42.660;23.292;2023-06-26T09:27:09;6.17;;;5.57;;
22929;SDS011;11630;42.660;23.292;2023-06-26T09:29:40;7.83;;;6.23;;
22929;SDS011;11630;42.660;23.292;2023-06-26T09:32:12;10.70;;;7.10;;
22929;SDS011;11630;42.660;23.292;2023-06-26T09:34:45;8.70;;;6.97;;
22929;SDS011;11630;42.660;23.292;2023-06-26T09:37:16;11.23;;;5.90;;
22929;SDS011;11630;42.660;23.292;2023-06-26T09:39:46;9.13;;;6.67;;
22929;SDS011;11630;42.660;23.292;2023-06-26T09:42:18;5.97;;;5.33;;
22929;SDS011;11630;42.660;23.292;2023-06-26T09:44:48;10.00;;;6.17;;
22929;SDS011;11630;42.660;23.292;2023-06-26T09:47:19;6.20;;;5.43;;
22929;SDS011;11630;42.660;23.292;2023-06-26T09:49:50;10.33;;;6.27;;
22929;SDS011;11630;42.660;23.292;2023-06-26T09:52:25;10.43;;;5.90;;
22929;SDS011;11630;42.660;23.292;2023-06-26T09:55:09;8.77;;;6.30;;
22929;SDS011;11630;42.660;23.292;2023-06-26T09:57:39;5.93;;;5.00;;
22929;SDS011;11630;42.660;23.292;2023-06-26T10:00:11;8.63;;;5.63;;
22929;SDS011;11630;42.660;23.292;2023-06-26T10:02:44;6.60;;;5.27;;
22929;SDS011;11630;42.660;23.292;2023-06-26T10:05:14;7.63;;;5.80;;
22929;SDS011;11630;42.660;23.292;2023-06-26T10:07:45;8.20;;;6.23;;
22929;SDS011;11630;42.660;23.292;2023-06-26T10:10:17;6.17;;;5.57;;
22929;SDS011;11630;42.660;23.292;2023-06-26T10:12:48;16.67;;;7.10;;
22929;SDS011;11630;42.660;23.292;2023-06-26T10:15:19;6.00;;;5.37;;
22929;SDS011;11630;42.660;23.292;2023-06-26T10:17:51;11.23;;;6.03;;
22929;SDS011;11630;42.660;23.292;2023-06-26T10:20:23;7.53;;;5.30;;
22929;SDS011;11630;42.660;23.292;2023-06-26T10:22:53;5.73;;;5.13;;
22929;SDS011;11630;42.660;23.292;2023-06-26T10:25:26;7.90;;;5.20;;
22929;SDS011;11630;42.660;23.292;2023-06-26T10:28:00;7.30;;;5.17;;
22929;SDS011;11630;42.660;23.292;2023-06-26T10:30:33;4.93;;;4.43;;
22929;SDS011;11630;42.660;23.292;2023-06-26T10:33:06;8.73;;;5.60;;
22929;SDS011;11630;42.660;23.292;2023-06-26T10:35:45;6.50;;;4.60;;
22929;SDS011;11630;42.660;23.292;2023-06-26T10:38:17;8.80;;;5.47;;
22929;SDS011;11630;42.660;23.292;2023-06-26T10:40:47;10.73;;;6.23;;
22929;SDS011;11630;42.660;23.292;2023-06-26T10:43:17;9.17;;;5.10;;
22929;SDS011;11630;42.660;23.292;2023-06-26T10:45:49;7.77;;;5.50;;
22929;SDS011;11630;42.660;23.292;2023-06-26T10:48:20;11.27;;;6.07;;
22929;SDS011;11630;42.660;23.292;2023-06-26T10:50:51;7.93;;;5.70;;
22929;SDS011;11630;42.660;23.292;2023-06-26T10:53:23;8.13;;;5.93;;
22929;SDS011;11630;42.660;23.292;2023-06-26T10:55:56;9.03;;;5.60;;
22929;SDS011;11630;42.660;23.292;2023-06-26T10:58:34;6.60;;;4.93;;
22929;SDS011;11630;42.660;23.292;2023-06-26T11:03:47;7.60;;;6.27;;
22929;SDS011;11630;42.660;23.292;2023-06-26T11:06:29;11.23;;;6.77;;
22929;SDS011;11630;42.660;23.292;2023-06-26T11:09:07;9.63;;;6.17;;
22929;SDS011;11630;42.660;23.292;2023-06-26T11:14:26;10.80;;;6.33;;
22929;SDS011;11630;42.660;23.292;2023-06-26T11:16:57;13.07;;;7.17;;
22929;SDS011;11630;42.660;23.292;2023-06-26T11:19:28;7.53;;;6.40;;
22929;SDS011;11630;42.660;23.292;2023-06-26T11:22:01;7.23;;;5.80;;
22929;SDS011;11630;42.660;23.292;2023-06-26T11:24:31;9.60;;;5.33;;
22929;SDS011;11630;42.660;23.292;2023-06-26T11:27:01;11.73;;;6.60;;
22929;SDS011;11630;42.660;23.292;2023-06-26T11:29:33;8.37;;;6.47;;
22929;SDS011;11630;42.660;23.292;2023-06-26T11:32:05;7.27;;;6.57;;
22929;SDS011;11630;42.660;23.292;2023-06-26T11:34:35;8.47;;;6.27;;
22929;SDS011;11630;42.660;23.292;2023-06-26T11:37:06;7.43;;;5.67;;
22929;SDS011;11630;42.660;23.292;2023-06-26T11:39:36;8.90;;;5.33;;
22929;SDS011;11630;42.660;23.292;2023-06-26T11:42:07;11.13;;;6.13;;
22929;SDS011;11630;42.660;23.292;2023-06-26T11:44:39;9.80;;;6.00;;
22929;SDS011;11630;42.660;23.292;2023-06-26T11:47:15;10.03;;;5.93;;
22929;SDS011;11630;42.660;23.292;2023-06-26T11:49:49;6.23;;;5.63;;
22929;SDS011;11630;42.660;23.292;2023-06-26T11:52:19;8.37;;;6.43;;
22929;SDS011;11630;42.660;23.292;2023-06-26T11:54:50;8.53;;;6.33;;
22929;SDS011;11630;42.660;23.292;2023-06-26T11:57:22;9.27;;;6.10;;
22929;SDS011;11630;42.660;23.292;2023-06-26T11:59:53;8.83;;;6.00;;
22929;SDS011;11630;42.660;23.292;2023-06-26T12:02:23;7.23;;;6.50;;
22929;SDS011;11630;42.660;23.292;2023-06-26T12:04:54;7.10;;;5.83;;
22929;SDS011;11630;42.660;23.292;2023-06-26T12:07:25;6.40;;;5.77;;
22929;SDS011;11630;42.660;23.292;2023-06-26T12:09:56;8.80;;;5.47;;
22929;SDS011;11630;42.660;23.292;2023-06-26T12:12:27;6.47;;;5.37;;
22929;SDS011;11630;42.660;23.292;2023-06-26T12:15:04;9.77;;;6.87;;
22929;SDS011;11630;42.660;23.292;2023-06-26T12:17:39;6.40;;;5.80;;
22929;SDS011;11630;42.660;23.292;2023-06-26T12:20:22;6.30;;;5.70;;
22929;SDS011;11630;42.660;23.292;2023-06-26T12:22:54;10.05;;;5.90;;
22929;SDS011;11630;42.660;23.292;2023-06-26T12:25:24;12.43;;;6.70;;
22929;SDS011;11630;42.660;23.292;2023-06-26T12:27:55;8.60;;;6.05;;
22929;SDS011;11630;42.660;23.292;2023-06-26T12:30:26;6.62;;;5.15;;
22929;SDS011;11630;42.660;23.292;2023-06-26T12:32:57;8.15;;;5.70;;
22929;SDS011;11630;42.660;23.292;2023-06-26T12:35:28;12.60;;;6.62;;
22929;SDS011;11630;42.660;23.292;2023-06-26T12:37:59;13.35;;;5.78;;
22929;SDS011;11630;42.660;23.292;2023-06-26T12:40:30;8.40;;;5.37;;
22929;SDS011;11630;42.660;23.292;2023-06-26T12:43:02;7.00;;;5.70;;
22929;SDS011;11630;42.660;23.292;2023-06-26T12:45:40;9.47;;;6.17;;
22929;SDS011;11630;42.660;23.292;2023-06-26T12:48:12;7.33;;;6.53;;
22929;SDS011;11630;42.660;23.292;2023-06-26T12:50:45;8.27;;;6.20;;
22929;SDS011;11630;42.660;23.292;2023-06-26T12:53:16;12.50;;;6.50;;
22929;SDS011;11630;42.660;23.292;2023-06-26T12:55:50;7.13;;;6.27;;
22929;SDS011;11630;42.660;23.292;2023-06-26T12:58:21;6.13;;;5.47;;
22929;SDS011;11630;42.660;23.292;2023-06-26T13:00:52;8.00;;;6.20;;
22929;SDS011;11630;42.660;23.292;2023-06-26T13:03:23;7.07;;;6.17;;
22929;SDS011;11630;42.660;23.292;2023-06-26T13:05:57;11.97;;;6.90;;
22929;SDS011;11630;42.660;23.292;2023-06-26T13:08:27;7.73;;;6.40;;
22929;SDS011;11630;42.660;23.292;2023-06-26T13:10:58;6.87;;;6.13;;
22929;SDS011;11630;42.660;23.292;2023-06-26T13:13:28;12.67;;;6.93;;
22929;SDS011;11630;42.660;23.292;2023-06-26T13:15:59;14.70;;;7.67;;
22929;SDS011;11630;42.660;23.292;2023-06-26T13:18:30;9.70;;;7.27;;
22929;SDS011;11630;42.660;23.292;2023-06-26T13:21:01;6.83;;;6.10;;
22929;SDS011;11630;42.660;23.292;2023-06-26T13:23:32;7.47;;;6.27;;
22929;SDS011;11630;42.660;23.292;2023-06-26T13:26:03;18.90;;;6.60;;
22929;SDS011;11630;42.660;23.292;2023-06-26T13:28:35;5.67;;;5.10;;
22929;SDS011;11630;42.660;23.292;2023-06-26T13:31:06;5.83;;;5.30;;
22929;SDS011;11630;42.660;23.292;2023-06-26T13:33:36;6.63;;;5.93;;
22929;SDS011;11630;42.660;23.292;2023-06-26T13:36:07;16.63;;;6.00;;
22929;SDS011;11630;42.660;23.292;2023-06-26T13:38:37;11.50;;;6.43;;
22929;SDS011;11630;42.660;23.292;2023-06-26T13:41:07;7.40;;;6.13;;
22929;SDS011;11630;42.660;23.292;2023-06-26T13:43:37;8.88;;;5.65;;
22929;SDS011;11630;42.660;23.292;2023-06-26T13:46:07;7.17;;;5.53;;
22929;SDS011;11630;42.660;23.292;2023-06-26T13:48:38;9.28;;;5.92;;
22929;SDS011;11630;42.660;23.292;2023-06-26T13:51:09;5.03;;;4.53;;
22929;SDS011;11630;42.660;23.292;2023-06-26T13:53:39;7.73;;;5.47;;
22929;SDS011;11630;42.660;23.292;2023-06-26T13:56:10;7.03;;;5.90;;
22929;SDS011;11630;42.660;23.292;2023-06-26T13:58:41;8.50;;;5.97;;
22929;SDS011;11630;42.660;23.292;2023-06-26T14:01:12;9.07;;;5.50;;
22929;SDS011;11630;42.660;23.292;2023-06-26T14:03:43;10.60;;;6.07;;
22929;SDS011;11630;42.660;23.292;2023-06-26T14:06:14;9.83;;;6.37;;
22929;SDS011;11630;42.660;23.292;2023-06-26T14:08:45;12.93;;;6.93;;
22929;SDS011;11630;42.660;23.292;2023-06-26T14:11:16;7.63;;;5.70;;
22929;SDS011;11630;42.660;23.292;2023-06-26T14:13:47;13.10;;;6.80;;
22929;SDS011;11630;42.660;23.292;2023-06-26T14:16:18;19.00;;;6.97;;
22929;SDS011;11630;42.660;23.292;2023-06-26T14:18:49;10.40;;;6.43;;
22929;SDS011;11630;42.660;23.292;2023-06-26T14:21:20;11.27;;;6.53;;
22929;SDS011;11630;42.660;23.292;2023-06-26T14:23:52;8.13;;;6.60;;
22929;SDS011;11630;42.660;23.292;2023-06-26T14:26:23;11.83;;;6.63;;
22929;SDS011;11630;42.660;23.292;2023-06-26T14:28:54;7.17;;;5.80;;
22929;SDS011;11630;42.660;23.292;2023-06-26T14:31:25;8.23;;;5.77;;
22929;SDS011;11630;42.660;23.292;2023-06-26T14:33:56;6.33;;;5.40;;
22929;SDS011;11630;42.660;23.292;2023-06-26T14:36:27;9.47;;;6.43;;
22929;SDS011;11630;42.660;23.292;2023-06-26T14:39:01;7.97;;;5.40;;
22929;SDS011;11630;42.660;23.292;2023-06-26T14:41:32;6.33;;;5.30;;
22929;SDS011;11630;42.660;23.292;2023-06-26T14:44:02;6.23;;;5.60;;
22929;SDS011;11630;42.660;23.292;2023-06-26T14:46:33;7.23;;;5.50;;
22929;SDS011;11630;42.660;23.292;2023-06-26T14:49:03;9.33;;;5.97;;
22929;SDS011;11630;42.660;23.292;2023-06-26T14:51:34;6.77;;;6.03;;